Airfield :
LOGIN :

Register | Disclaimer

   EN    FR    IT 

 










Legend :    VFR   Marginal VFR   IFR   Intensive IFR   Very Intensive IFR
Visi :
Ceiling :
>= 8 km
>= 3000ft
5 to 8 km
1000 to 3000 ft
1500m to 5 km
500 to 1000 ft
800 to 1500m
200 to 500 ft
< 800m
< 200 ft
Symbols :   Thunderstorms  Fog  Heavy snow  Heavy precipitations  Wind > 20 kt
SIGMETs :     Misc.  Thunderstorms  Icing  Turbulence  Mountain Waves  Volcanic Ashes







- Airport Elevation : 1411 ft
- IATA code : SZG


LOWS - Salzburg

CURRENT METAR :
  • 220250Z AUTO 29008KT 9999 SCT050 BKN070 14/08 Q1021

EXPIRED METARs :
  • 220220Z AUTO 27007KT 9999 FEW050 BKN060 14/09 Q1020
  • 220150Z AUTO 25006KT 220V300 9999 FEW050 OVC060 14/11 Q1020
  • 220120Z AUTO 23006KT 9999 FEW050 BKN060 14/11 Q1020
  • 220050Z AUTO 24004KT 210V270 9999 -SHRA BKN050 14/11 Q1020
  • 220020Z AUTO 24006KT 210V290 9999 SHRA FEW014 BKN048 14/12 Q1019

TAF TAF LOWS
Valid from the 22 at 00:00 until the 23 at 00:00 UTC


212315Z 2200/2224 31006KT 9999 SCT040 TX16/2200Z TN11/2223Z
TEMPO 2200/2203 31015KT SHRA SCT030 BKN040
TEMPO 2212/2218 31012KT -SHRA BKN040
PROB30
TEMPO 2214/2218 31015G28KT 4000 SHRA FEW030TCU BKN040
BECMG 2218/2220 22005KT
No reported NOTAMs for that airfield.



MET'MAP, your aeronautical weather chart ! - Copyright ORBIFLY December 2007 - Disclaimer

ORBIFLY MET'MAP TEAM :

Programming & Development : Alexandra Zaïnal
Concept & Development : Baudouin d'Aumeries
Co-Development & Prog : Marc-Olivier Méhu
Technical & hardware support : Manuel Goepfert

Contact : metmap@orbifly.com




SOURCES & CREDITS :

   NOAA